Time;durP1;ratioP1;P1;durP2;ratioP2;P2;SDS_P1;SDS_P2;PMS_P1;PMS_P2;Temp;Humidity;BMP_temperature;BMP_pressure;BME280_temperature;BME280_humidity;BME280_pressure;Samples;Min_cycle;Max_cycle;Signal;HPM_P1;HPM_P2
2022/09/15 00:04:04;;;;;;;4.97;2.00;;;18.90;99.90;;;;;;10453103;28;20059;-78
2022/09/15 00:09:07;;;;;;;5.15;2.00;;;18.90;99.90;;;;;;10445335;28;20049;-77
2022/09/15 00:14:09;;;;;;;4.47;1.80;;;18.90;99.90;;;;;;10453292;28;20057;-77
2022/09/15 00:19:11;;;;;;;4.22;2.15;;;19.00;99.90;;;;;;10459208;28;20396;-78
2022/09/15 00:24:15;;;;;;;4.97;2.13;;;18.90;99.90;;;;;;10450352;28;20199;-78
2022/09/15 00:29:17;;;;;;;5.90;2.10;;;18.90;99.90;;;;;;10442964;28;20048;-78
2022/09/15 00:34:19;;;;;;;4.00;2.15;;;19.00;99.90;;;;;;10446403;28;20049;-78
2022/09/15 00:39:22;;;;;;;7.18;2.10;;;19.00;99.90;;;;;;10442925;28;20060;-78
2022/09/15 00:44:53;;;;;;;4.22;2.03;;;19.10;99.90;;;;;;10451937;28;20048;-78
2022/09/15 00:50:00;;;;;;;3.88;1.83;;;19.20;99.90;;;;;;10451840;28;20123;-78
2022/09/15 00:55:09;;;;;;;4.63;1.75;;;19.20;99.90;;;;;;10445590;28;20049;-78
2022/09/15 01:00:17;;;;;;;5.32;1.95;;;19.20;99.90;;;;;;10452060;28;20103;-78
2022/09/15 01:05:21;;;;;;;6.20;1.70;;;19.30;99.90;;;;;;10455768;28;20049;-78
2022/09/15 01:10:28;;;;;;;6.28;1.90;;;19.30;99.90;;;;;;10456968;28;20048;-78
2022/09/15 01:15:41;;;;;;;3.22;1.67;;;19.20;99.90;;;;;;10444251;28;20044;-77
2022/09/15 01:21:19;;;;;;;5.25;1.70;;;19.20;99.90;;;;;;10457111;28;20045;-78
2022/09/15 01:26:52;;;;;;;6.80;1.98;;;19.20;99.90;;;;;;10442817;28;20091;-77
2022/09/15 01:37:28;;;;;;;4.03;1.55;;;19.20;99.90;;;;;;10455056;28;20490;-78
2022/09/15 01:42:32;;;;;;;5.13;2.03;;;19.10;99.90;;;;;;10447237;28;20056;-78
2022/09/15 01:47:37;;;;;;;4.43;1.90;;;19.10;99.90;;;;;;10452050;28;20041;-78
2022/09/15 01:52:43;;;;;;;3.38;1.60;;;19.10;99.90;;;;;;10439249;28;20044;-77
2022/09/15 01:57:45;;;;;;;4.15;1.80;;;19.10;99.90;;;;;;10448980;28;20491;-77
2022/09/15 02:02:53;;;;;;;5.00;1.70;;;19.10;99.90;;;;;;10448430;28;20056;-77
2022/09/15 02:08:04;;;;;;;4.97;1.60;;;19.10;99.90;;;;;;10443873;28;20049;-77
2022/09/15 02:13:15;;;;;;;3.55;1.40;;;19.00;99.90;;;;;;10447965;28;20048;-77
2022/09/15 02:18:27;;;;;;;5.22;1.65;;;19.00;99.90;;;;;;10439363;28;20483;-76
2022/09/15 02:23:36;;;;;;;5.70;1.48;;;18.90;99.90;;;;;;10449586;28;20103;-77
2022/09/15 02:28:41;;;;;;;4.07;1.58;;;18.90;99.90;;;;;;10450843;28;20049;-77
2022/09/15 02:33:49;;;;;;;4.35;1.50;;;18.90;99.90;;;;;;10447192;28;20056;-77
2022/09/15 02:38:55;;;;;;;4.45;1.50;;;18.90;99.90;;;;;;10451734;28;20528;-77
2022/09/15 02:43:57;;;;;;;2.72;1.30;;;18.80;99.90;;;;;;10440150;28;20056;-78
2022/09/15 02:49:00;;;;;;;3.28;1.30;;;18.80;99.90;;;;;;10454804;28;20049;-78
2022/09/15 02:54:02;;;;;;;4.57;1.50;;;18.90;99.90;;;;;;10453164;28;20048;-77
2022/09/15 02:59:05;;;;;;;2.55;1.10;;;18.90;99.90;;;;;;10442453;28;20174;-77
2022/09/15 03:04:08;;;;;;;3.42;1.30;;;18.80;99.90;;;;;;10453798;28;20049;-77
2022/09/15 03:09:11;;;;;;;3.90;1.42;;;18.80;99.90;;;;;;10443790;28;20384;-77
2022/09/15 03:14:13;;;;;;;3.58;1.35;;;18.80;99.90;;;;;;10446821;28;20106;-77
2022/09/15 03:19:16;;;;;;;4.78;1.42;;;18.80;99.90;;;;;;10454991;28;20433;-78
2022/09/15 03:24:19;;;;;;;3.85;1.20;;;18.80;99.90;;;;;;10450388;28;20063;-78
2022/09/15 03:29:21;;;;;;;3.95;1.27;;;18.70;99.90;;;;;;10451426;28;20564;-77
2022/09/15 03:34:25;;;;;;;3.53;1.50;;;18.70;99.90;;;;;;10460551;28;20066;-77
2022/09/15 03:39:27;;;;;;;3.95;1.27;;;18.70;99.90;;;;;;10459930;28;20487;-78
2022/09/15 03:44:29;;;;;;;2.83;1.40;;;18.70;99.90;;;;;;10460644;28;20060;-77
2022/09/15 03:49:32;;;;;;;3.90;1.40;;;18.70;99.90;;;;;;10456155;28;20044;-77
2022/09/15 03:54:34;;;;;;;3.55;1.10;;;18.70;99.90;;;;;;10460094;28;20044;-77
2022/09/15 03:59:36;;;;;;;4.38;1.40;;;18.70;99.90;;;;;;10448049;28;20132;-77
2022/09/15 04:04:40;;;;;;;4.40;1.23;;;18.70;99.90;;;;;;10455379;28;20064;-78
2022/09/15 04:09:42;;;;;;;5.70;1.63;;;18.70;99.90;;;;;;10445945;28;20491;-77
2022/09/15 04:14:44;;;;;;;3.55;1.45;;;18.70;99.90;;;;;;10457677;28;20045;-77
2022/09/15 04:19:47;;;;;;;4.85;1.20;;;18.70;99.90;;;;;;10446750;28;20048;-78
2022/09/15 04:24:50;;;;;;;2.72;1.23;;;18.70;99.90;;;;;;10452991;28;20049;-77
2022/09/15 04:29:52;;;;;;;3.28;1.27;;;18.70;99.90;;;;;;10447858;28;20048;-78
2022/09/15 04:34:56;;;;;;;3.40;1.20;;;18.60;99.90;;;;;;10455299;28;20075;-77
2022/09/15 04:39:58;;;;;;;3.00;1.23;;;18.60;99.90;;;;;;10445443;28;20793;-78
2022/09/15 04:45:00;;;;;;;4.30;1.20;;;18.60;99.90;;;;;;10444443;28;20495;-78
2022/09/15 04:50:04;;;;;;;2.80;1.20;;;18.60;99.90;;;;;;10456358;28;20049;-77
2022/09/15 04:55:07;;;;;;;4.38;1.33;;;18.60;99.90;;;;;;10458085;28;20052;-77
2022/09/15 05:00:11;;;;;;;3.55;1.23;;;18.50;99.90;;;;;;10441709;28;20049;-77
2022/09/15 05:05:15;;;;;;;3.70;1.23;;;18.50;99.90;;;;;;10450077;28;20060;-76
2022/09/15 05:10:17;;;;;;;4.40;1.20;;;18.60;99.90;;;;;;10449353;28;20499;-78
2022/09/15 05:15:19;;;;;;;4.18;1.10;;;18.50;99.90;;;;;;10434425;28;20055;-78
2022/09/15 05:20:22;;;;;;;3.65;1.10;;;18.50;99.90;;;;;;10453666;28;20056;-78
2022/09/15 05:25:25;;;;;;;4.10;1.20;;;18.50;99.90;;;;;;10442006;28;20092;-78
2022/09/15 05:30:27;;;;;;;4.72;1.10;;;18.50;99.90;;;;;;10433174;28;20416;-78
2022/09/15 05:35:30;;;;;;;3.13;1.20;;;18.50;99.90;;;;;;10424390;28;20499;-78
2022/09/15 05:40:33;;;;;;;3.33;1.05;;;18.50;99.90;;;;;;10435467;28;20055;-78
2022/09/15 05:45:35;;;;;;;2.72;1.00;;;18.50;99.90;;;;;;10437104;28;20297;-78
2022/09/15 05:50:39;;;;;;;2.92;1.20;;;18.50;99.90;;;;;;10433701;28;20037;-78
2022/09/15 05:55:41;;;;;;;5.05;1.02;;;18.50;99.90;;;;;;10436756;28;20045;-79
2022/09/15 06:00:44;;;;;;;5.07;1.30;;;18.50;99.90;;;;;;10439713;28;20499;-78
2022/09/15 06:05:49;;;;;;;3.53;1.27;;;18.40;99.90;;;;;;10438441;28;20140;-78
2022/09/15 06:10:51;;;;;;;3.92;1.10;;;18.40;99.90;;;;;;10429745;28;20041;-77
2022/09/15 06:15:53;;;;;;;3.35;1.35;;;18.30;99.90;;;;;;10439347;28;20064;-77
2022/09/15 06:20:56;;;;;;;3.75;1.20;;;18.20;99.90;;;;;;10433116;28;20515;-78
2022/09/15 06:26:08;;;;;;;3.80;1.42;;;18.20;99.90;;;;;;10449553;28;20060;-78
2022/09/15 06:31:12;;;;;;;3.10;1.50;;;18.20;99.90;;;;;;10413993;28;20522;-77
2022/09/15 06:36:16;;;;;;;4.38;1.40;;;18.20;99.90;;;;;;10433687;28;20144;-78
2022/09/15 06:41:19;;;;;;;3.47;1.40;;;18.20;99.90;;;;;;10435024;28;20049;-78
2022/09/15 06:46:23;;;;;;;4.18;1.50;;;18.20;99.90;;;;;;10443494;28;20371;-78
2022/09/15 06:51:30;;;;;;;4.22;1.50;;;18.10;99.90;;;;;;10444612;28;20135;-77
2022/09/15 06:56:32;;;;;;;4.55;1.45;;;18.10;99.90;;;;;;10462280;28;20049;-78
2022/09/15 07:01:34;;;;;;;4.00;1.35;;;18.10;99.90;;;;;;10460512;28;20057;-78
2022/09/15 07:06:39;;;;;;;5.35;1.60;;;18.20;99.90;;;;;;10444176;28;20048;-78
2022/09/15 07:11:42;;;;;;;4.28;1.50;;;18.10;99.90;;;;;;10445251;28;20549;-76
2022/09/15 07:16:44;;;;;;;4.85;1.50;;;18.20;99.90;;;;;;10461391;28;20052;-77
2022/09/15 07:21:47;;;;;;;3.17;1.38;;;18.20;99.90;;;;;;10456851;28;20055;-77
2022/09/15 07:26:49;;;;;;;2.70;1.35;;;18.30;99.90;;;;;;10447302;28;20045;-78
2022/09/15 07:31:51;;;;;;;3.80;1.23;;;18.30;99.90;;;;;;10459881;28;20055;-77
2022/09/15 07:36:54;;;;;;;4.10;1.40;;;18.30;99.90;;;;;;10460728;28;20057;-77
2022/09/15 07:41:56;;;;;;;4.15;1.33;;;18.30;99.90;;;;;;10458656;28;20049;-77
2022/09/15 07:46:58;;;;;;;3.45;1.30;;;18.30;99.90;;;;;;10438908;28;20060;-77
2022/09/15 07:52:02;;;;;;;4.50;1.30;;;18.30;99.90;;;;;;10449771;28;20079;-78
2022/09/15 07:57:05;;;;;;;3.50;1.25;;;18.40;99.90;;;;;;10439710;28;20053;-77
2022/09/15 08:02:07;;;;;;;3.88;1.20;;;18.50;99.90;;;;;;10456190;28;20068;-77
2022/09/15 08:07:10;;;;;;;4.47;1.50;;;18.50;99.90;;;;;;10436861;28;20060;-77
2022/09/15 08:12:12;;;;;;;2.88;1.20;;;18.50;99.90;;;;;;10434646;28;20076;-76
2022/09/15 08:17:14;;;;;;;3.40;1.35;;;18.50;99.90;;;;;;10435877;28;20410;-76
2022/09/15 08:22:18;;;;;;;5.50;1.50;;;18.50;99.90;;;;;;10437968;28;20387;-75
2022/09/15 08:27:20;;;;;;;3.25;1.40;;;18.60;99.90;;;;;;10432628;28;20056;-76
2022/09/15 08:32:22;;;;;;;3.72;1.50;;;18.60;99.90;;;;;;10433387;28;20060;-77
2022/09/15 08:37:25;;;;;;;3.10;1.50;;;18.70;99.90;;;;;;10432703;28;20044;-76
2022/09/15 08:42:29;;;;;;;5.18;1.58;;;18.80;99.90;;;;;;10431960;28;20048;-75
2022/09/15 08:47:36;;;;;;;3.70;1.52;;;18.90;99.90;;;;;;10447966;28;20049;-75
2022/09/15 08:52:44;;;;;;;3.60;1.50;;;19.00;99.90;;;;;;10451706;28;20063;-76
2022/09/15 08:57:46;;;;;;;4.05;1.20;;;19.00;99.90;;;;;;10436778;28;20045;-77
2022/09/15 09:03:28;;;;;;;3.03;1.02;;;19.10;99.90;;;;;;10441750;28;20055;-79
2022/09/15 09:09:04;;;;;;;3.35;1.00;;;19.20;99.90;;;;;;10433603;28;20049;-78
2022/09/15 09:14:19;;;;;;;2.05;0.90;;;19.20;99.90;;;;;;10432719;28;20067;-77
2022/09/15 09:20:03;;;;;;;2.25;0.90;;;19.30;99.90;;;;;;10432771;28;20515;-77
2022/09/15 09:25:13;;;;;;;3.00;1.00;;;19.40;99.90;;;;;;10439592;28;20052;-79
2022/09/15 09:30:19;;;;;;;3.38;1.23;;;19.50;99.90;;;;;;10445642;28;20135;-79
2022/09/15 09:35:29;;;;;;;3.38;1.00;;;19.50;99.90;;;;;;10451726;28;20045;-77
2022/09/15 09:40:35;;;;;;;3.03;1.00;;;19.50;99.90;;;;;;10436962;28;20052;-78
2022/09/15 09:45:37;;;;;;;2.58;0.82;;;19.50;99.90;;;;;;10445934;28;20049;-77
2022/09/15 09:50:43;;;;;;;3.17;1.17;;;19.60;99.90;;;;;;10445657;28;20041;-78
2022/09/15 09:55:46;;;;;;;2.25;0.90;;;19.60;99.90;;;;;;10443283;28;20045;-79
2022/09/15 10:00:49;;;;;;;3.47;1.27;;;19.60;99.90;;;;;;10439711;28;20491;-79
2022/09/15 10:06:04;;;;;;;2.95;0.90;;;19.70;99.90;;;;;;10435358;28;20055;-78
2022/09/15 10:11:10;;;;;;;3.08;1.10;;;20.00;99.90;;;;;;10454229;28;20048;-77
2022/09/15 10:16:12;;;;;;;2.92;0.85;;;20.10;99.90;;;;;;10458471;28;20048;-78
2022/09/15 10:21:15;;;;;;;4.35;0.88;;;20.30;99.90;;;;;;10462578;28;20051;-79
2022/09/15 10:26:31;;;;;;;2.60;1.10;;;20.30;99.90;;;;;;10463606;28;20404;-78
2022/09/15 10:31:34;;;;;;;2.38;1.02;;;20.20;99.90;;;;;;10444373;28;20129;-78
2022/09/15 10:36:36;;;;;;;2.38;1.10;;;20.00;99.90;;;;;;10442929;28;20064;-80
2022/09/15 10:41:47;;;;;;;2.78;1.05;;;20.00;99.90;;;;;;10450259;28;20064;-78
2022/09/15 10:47:00;;;;;;;3.15;1.10;;;20.00;99.90;;;;;;10432789;28;20045;-78
2022/09/15 10:52:14;;;;;;;3.53;0.98;;;20.00;99.90;;;;;;10421803;28;20132;-78
2022/09/15 10:57:40;;;;;;;2.20;1.02;;;20.10;99.90;;;;;;10420962;28;20052;-79
2022/09/15 11:03:33;;;;;;;2.83;1.05;;;20.10;99.90;;;;;;10421019;28;20515;-78
2022/09/15 11:09:02;;;;;;;4.32;1.10;;;20.20;99.90;;;;;;10420751;28;20119;-79
2022/09/15 11:14:26;;;;;;;4.07;2.08;;;20.20;99.90;;;;;;10420556;28;20491;-79
2022/09/15 11:19:44;;;;;;;3.05;0.75;;;20.20;99.90;;;;;;10420505;28;20045;-79
2022/09/15 11:24:51;;;;;;;0.85;0.35;;;19.90;99.90;;;;;;10421435;28;20053;-79
2022/09/15 11:30:03;;;;;;;0.98;0.30;;;19.40;99.90;;;;;;10419440;28;20049;-80
2022/09/15 11:35:38;;;;;;;0.77;0.30;;;19.10;99.90;;;;;;10420682;28;20056;-81
2022/09/15 11:40:47;;;;;;;2.30;0.57;;;18.70;99.90;;;;;;10420419;28;20103;-81
2022/09/15 11:45:55;;;;;;;2.33;0.70;;;18.40;99.90;;;;;;10420303;28;20061;-80
2022/09/15 11:51:02;;;;;;;1.40;0.60;;;18.30;99.90;;;;;;10428955;28;20048;-80
2022/09/15 11:56:16;;;;;;;2.55;1.08;;;18.30;99.90;;;;;;10461222;28;20060;-80
2022/09/15 12:01:23;;;;;;;4.43;1.50;;;18.00;99.90;;;;;;10460553;28;20107;-80
2022/09/15 12:06:31;;;;;;;2.03;0.90;;;18.00;99.90;;;;;;10460808;28;20128;-80
2022/09/15 12:11:43;;;;;;;2.78;1.17;;;17.90;99.90;;;;;;10459995;28;20114;-81
2022/09/15 12:16:48;;;;;;;3.72;1.33;;;17.60;99.90;;;;;;10460335;28;20049;-79
2022/09/15 12:21:58;;;;;;;3.38;1.40;;;17.50;99.90;;;;;;10459344;28;20041;-79
2022/09/15 12:27:01;;;;;;;3.65;1.73;;;17.30;99.90;;;;;;10458858;28;20060;-79
2022/09/15 12:32:25;;;;;;;4.25;1.88;;;17.50;99.90;;;;;;10459160;28;20075;-80
2022/09/15 12:37:35;;;;;;;3.80;1.98;;;17.40;99.90;;;;;;10457830;28;20064;-79
2022/09/15 12:42:37;;;;;;;5.00;2.22;;;17.20;99.90;;;;;;10457916;28;20079;-79
2022/09/15 12:47:48;;;;;;;5.13;2.00;;;17.10;99.90;;;;;;10458083;28;20483;-79
2022/09/15 12:52:55;;;;;;;4.07;2.00;;;17.20;99.90;;;;;;10458325;28;20099;-79
2022/09/15 12:58:00;;;;;;;4.55;2.08;;;17.00;99.90;;;;;;10458114;28;20497;-79
2022/09/15 13:03:06;;;;;;;5.20;1.83;;;16.90;99.90;;;;;;10457721;28;20049;-79
2022/09/15 13:08:14;;;;;;;5.68;2.25;;;17.00;99.90;;;;;;10458225;28;20049;-79
2022/09/15 13:13:28;;;;;;;5.10;2.40;;;17.00;99.90;;;;;;10458419;28;20056;-79
2022/09/15 13:18:33;;;;;;;4.20;2.40;;;16.90;99.90;;;;;;10457208;28;20049;-79
2022/09/15 13:23:41;;;;;;;4.95;2.10;;;17.00;99.90;;;;;;10457152;28;20074;-79
2022/09/15 13:28:44;;;;;;;5.35;2.50;;;17.10;99.90;;;;;;10457039;28;20136;-79
2022/09/15 13:34:15;;;;;;;7.25;3.03;;;17.00;99.90;;;;;;10457585;28;20053;-79
2022/09/15 13:39:37;;;;;;;5.72;2.67;;;17.10;99.90;;;;;;10456777;28;20055;-78
2022/09/15 13:45:39;;;;;;;7.30;3.40;;;17.20;99.90;;;;;;10449231;28;20056;-79
2022/09/15 13:50:54;;;;;;;10.18;4.57;;;17.30;99.90;;;;;;10441439;28;20491;-79
2022/09/15 13:55:57;;;;;;;8.50;4.15;;;17.30;99.90;;;;;;10455705;28;20132;-81
2022/09/15 14:01:01;;;;;;;6.97;3.65;;;17.40;99.90;;;;;;10456514;28;20422;-81
2022/09/15 14:06:17;;;;;;;7.82;3.28;;;17.60;99.90;;;;;;10438931;28;20055;-82
2022/09/15 14:11:28;;;;;;;5.38;2.90;;;17.60;99.90;;;;;;10444903;28;20056;-82
2022/09/15 14:16:34;;;;;;;5.93;2.30;;;17.80;99.90;;;;;;10448868;28;20045;-80
2022/09/15 14:21:48;;;;;;;7.15;2.20;;;17.80;99.90;;;;;;10445531;28;20056;-81
2022/09/15 14:26:50;;;;;;;6.20;2.60;;;17.70;99.90;;;;;;10448257;28;20106;-82
2022/09/15 14:31:53;;;;;;;7.90;2.28;;;17.80;99.90;;;;;;10450034;28;20044;-81
2022/09/15 14:37:02;;;;;;;6.93;2.40;;;17.80;99.90;;;;;;10446847;28;20056;-81
2022/09/15 14:42:18;;;;;;;4.97;1.92;;;17.70;99.90;;;;;;10449379;28;20060;-81
2022/09/15 14:47:25;;;;;;;4.28;1.77;;;18.00;99.90;;;;;;10446913;28;20053;-81
2022/09/15 14:52:35;;;;;;;7.53;2.05;;;18.20;99.90;;;;;;10449638;28;20056;-81
2022/09/15 14:57:41;;;;;;;5.53;1.88;;;18.30;99.90;;;;;;10448973;28;20414;-82
2022/09/15 15:02:59;;;;;;;5.75;1.88;;;19.50;99.90;;;;;;10451358;28;20052;-82
2022/09/15 15:08:07;;;;;;;4.85;1.63;;;19.30;99.90;;;;;;10454555;28;20056;-82
2022/09/15 15:13:14;;;;;;;3.40;1.50;;;20.90;97.70;;;;;;10457180;28;20411;-82
2022/09/15 15:18:37;;;;;;;5.63;1.70;;;22.10;95.90;;;;;;10453764;28;20049;-81
2022/09/15 15:23:46;;;;;;;3.78;1.75;;;22.40;93.70;;;;;;10455667;28;20075;-81
2022/09/15 15:28:48;;;;;;;3.30;1.60;;;22.70;91.80;;;;;;10453975;28;20068;-82
2022/09/15 15:33:54;;;;;;;3.42;1.60;;;23.60;91.90;;;;;;10454392;28;20053;-80
2022/09/15 15:39:02;;;;;;;5.07;1.70;;;24.40;90.10;;;;;;10455498;28;20052;-80
2022/09/15 15:44:07;;;;;;;;;;;25.30;87.10;;;;;;10455639;28;20087;-79
2022/09/15 15:49:12;;;;;;;3.50;1.50;;;25.80;85.80;;;;;;10449966;28;19967;-80
2022/09/15 15:54:15;;;;;;;3.50;1.42;;;26.00;81.20;;;;;;10454820;28;20052;-76
2022/09/15 15:59:18;;;;;;;3.72;1.50;;;26.00;82.20;;;;;;10453283;28;20063;-76
2022/09/15 16:04:20;;;;;;;3.67;1.60;;;26.00;81.80;;;;;;10452152;28;20061;-76
2022/09/15 16:09:24;;;;;;;2.92;1.40;;;26.40;79.70;;;;;;10451527;28;20510;-76
2022/09/15 16:14:26;;;;;;;3.83;1.60;;;26.90;76.10;;;;;;10452606;28;20060;-76
2022/09/15 16:19:28;;;;;;;3.90;1.60;;;26.80;75.60;;;;;;10452062;28;20049;-76
2022/09/15 16:24:31;;;;;;;3.03;1.35;;;26.70;74.00;;;;;;10450958;28;20061;-77
2022/09/15 16:29:35;;;;;;;3.35;1.60;;;26.80;73.20;;;;;;10449562;28;20041;-76
2022/09/15 16:34:37;;;;;;;3.28;1.67;;;26.40;74.40;;;;;;10451416;28;20136;-76
2022/09/15 16:39:40;;;;;;;3.75;1.60;;;26.00;74.20;;;;;;10452493;28;20407;-76
2022/09/15 16:44:44;;;;;;;3.92;1.80;;;25.90;75.50;;;;;;10451353;28;20056;-76
2022/09/15 16:49:46;;;;;;;5.05;2.60;;;25.50;74.30;;;;;;10451216;28;20881;-76
2022/09/15 16:54:49;;;;;;;4.25;1.77;;;24.90;76.00;;;;;;10449045;28;20045;-76
2022/09/15 16:59:51;;;;;;;4.38;1.95;;;24.20;78.70;;;;;;10451642;28;20060;-76
2022/09/15 17:04:53;;;;;;;4.35;1.90;;;23.50;80.90;;;;;;10447725;28;20061;-76
2022/09/15 17:09:56;;;;;;;4.85;1.90;;;23.00;82.60;;;;;;10451852;28;20049;-77
2022/09/15 17:14:58;;;;;;;4.68;2.00;;;22.50;87.40;;;;;;10450591;28;20045;-76
2022/09/15 17:20:01;;;;;;;4.10;1.88;;;22.00;90.20;;;;;;10451295;28;20053;-76
2022/09/15 17:25:20;;;;;;;4.47;1.98;;;21.70;92.60;;;;;;10449571;28;20056;-78
2022/09/15 17:30:25;;;;;;;5.45;2.10;;;21.50;93.90;;;;;;10451028;28;20072;-79
2022/09/15 17:35:27;;;;;;;6.30;2.50;;;21.20;94.50;;;;;;10450222;28;20061;-79
2022/09/15 17:40:31;;;;;;;4.88;2.65;;;21.10;95.60;;;;;;10448690;28;20481;-77
2022/09/15 17:45:36;;;;;;;4.78;2.40;;;21.00;95.70;;;;;;10443853;28;20060;-78
2022/09/15 17:50:40;;;;;;;4.65;2.20;;;20.80;96.00;;;;;;10424023;28;20071;-78
2022/09/15 17:55:44;;;;;;;5.78;2.40;;;20.70;96.40;;;;;;10436964;28;20085;-79
2022/09/15 18:00:48;;;;;;;6.03;2.40;;;20.50;96.60;;;;;;10423987;28;20060;-78
2022/09/15 18:05:50;;;;;;;9.48;3.88;;;20.30;96.70;;;;;;10437522;28;20056;-78
2022/09/15 18:10:54;;;;;;;8.07;2.88;;;20.10;96.70;;;;;;10445948;28;20045;-81
2022/09/15 18:15:58;;;;;;;7.50;2.65;;;19.90;97.30;;;;;;10449440;28;20052;-81
2022/09/15 18:21:00;;;;;;;5.57;2.28;;;19.80;97.60;;;;;;10444882;28;20045;-79
2022/09/15 18:26:03;;;;;;;9.10;2.58;;;19.60;98.20;;;;;;10436596;28;20056;-79
2022/09/15 18:31:06;;;;;;;6.45;2.75;;;19.50;98.60;;;;;;10445380;28;20045;-78
2022/09/15 18:36:09;;;;;;;9.15;3.70;;;19.40;99.00;;;;;;10447405;28;20053;-78
2022/09/15 18:41:13;;;;;;;11.80;4.20;;;19.30;99.20;;;;;;10436336;28;20049;-78
2022/09/15 18:46:15;;;;;;;5.50;2.67;;;19.30;99.70;;;;;;10427717;28;20045;-78
2022/09/15 18:51:17;;;;;;;5.38;2.75;;;19.10;99.90;;;;;;10453659;28;20052;-77
2022/09/15 18:56:21;;;;;;;4.07;2.50;;;19.00;99.90;;;;;;10448267;28;20385;-78
2022/09/15 19:01:23;;;;;;;5.70;2.58;;;18.80;99.90;;;;;;10440923;28;20048;-77
2022/09/15 19:06:25;;;;;;;4.40;2.60;;;18.70;99.90;;;;;;10449132;28;20471;-76
2022/09/15 19:11:29;;;;;;;8.50;3.15;;;18.60;99.90;;;;;;10452729;28;20060;-77
2022/09/15 19:16:32;;;;;;;7.10;3.13;;;18.60;99.90;;;;;;10450121;28;20057;-78
2022/09/15 19:21:35;;;;;;;5.82;2.50;;;18.50;99.90;;;;;;10450858;28;20482;-77
2022/09/15 19:26:41;;;;;;;18.50;9.63;;;18.40;99.90;;;;;;10450831;28;20057;-77
2022/09/15 19:31:43;;;;;;;6.75;2.80;;;18.40;99.90;;;;;;10441951;28;20044;-77
2022/09/15 19:36:45;;;;;;;8.48;2.80;;;18.30;99.90;;;;;;10453384;28;20248;-78
2022/09/15 19:41:48;;;;;;;8.43;3.22;;;18.30;99.90;;;;;;10452070;28;20057;-76
2022/09/15 19:46:51;;;;;;;8.05;3.00;;;18.10;99.90;;;;;;10450781;28;20048;-75
2022/09/15 19:51:54;;;;;;;7.38;3.00;;;18.00;99.90;;;;;;10449358;28;20044;-78
2022/09/15 19:56:58;;;;;;;6.93;3.13;;;18.00;99.90;;;;;;10452482;28;20111;-77
2022/09/15 20:02:02;;;;;;;5.65;2.80;;;17.90;99.90;;;;;;10446005;28;20059;-76
2022/09/15 20:07:05;;;;;;;6.82;2.65;;;17.90;99.90;;;;;;10450196;28;20056;-78
2022/09/15 20:12:08;;;;;;;8.27;2.78;;;17.80;99.90;;;;;;10449951;28;20056;-78
2022/09/15 20:17:11;;;;;;;4.53;2.78;;;17.60;99.90;;;;;;10451410;28;20056;-78
2022/09/15 20:22:13;;;;;;;5.43;3.03;;;17.50;99.90;;;;;;10433319;28;20093;-79
2022/09/15 20:27:16;;;;;;;4.90;2.70;;;17.50;99.90;;;;;;10445555;28;20056;-76
2022/09/15 20:32:19;;;;;;;7.22;3.00;;;17.50;99.90;;;;;;10451706;28;20057;-78
2022/09/15 20:37:21;;;;;;;5.38;2.90;;;17.50;99.90;;;;;;10452128;28;20045;-78
2022/09/15 20:42:25;;;;;;;6.97;2.97;;;17.40;99.90;;;;;;10452174;28;20056;-78
2022/09/15 20:47:27;;;;;;;5.35;2.83;;;17.30;99.90;;;;;;10450429;28;20136;-78
2022/09/15 20:52:31;;;;;;;5.72;2.97;;;17.20;99.90;;;;;;10451663;28;20061;-77
2022/09/15 20:57:34;;;;;;;7.40;3.33;;;17.20;99.90;;;;;;10450351;28;20131;-77
2022/09/15 21:02:36;;;;;;;5.82;2.90;;;17.10;99.90;;;;;;10426652;28;20049;-78
2022/09/15 21:07:39;;;;;;;8.80;2.70;;;17.10;99.90;;;;;;10448063;28;20053;-77
2022/09/15 21:12:42;;;;;;;5.18;2.58;;;17.00;99.90;;;;;;10451153;28;20049;-77
2022/09/15 21:17:44;;;;;;;4.40;2.67;;;17.00;99.90;;;;;;10450699;28;20045;-77
2022/09/15 21:22:46;;;;;;;6.55;2.58;;;16.90;99.90;;;;;;10456030;28;20478;-77
2022/09/15 21:27:50;;;;;;;4.97;2.90;;;16.90;99.90;;;;;;10452660;28;20052;-77
2022/09/15 21:32:52;;;;;;;5.00;2.60;;;16.90;99.90;;;;;;10456732;28;20045;-77
2022/09/15 21:37:54;;;;;;;5.80;2.70;;;16.80;99.90;;;;;;10454282;28;20045;-77
2022/09/15 21:42:58;;;;;;;7.53;2.53;;;16.70;99.90;;;;;;10455747;28;20099;-77
2022/09/15 21:48:00;;;;;;;4.88;2.40;;;16.70;99.90;;;;;;10455150;28;20503;-77
2022/09/15 21:53:03;;;;;;;5.43;2.60;;;16.60;99.90;;;;;;10455244;28;20414;-77
2022/09/15 21:58:06;;;;;;;5.95;2.80;;;16.60;99.90;;;;;;10453270;28;20053;-77
2022/09/15 22:03:09;;;;;;;8.85;3.00;;;16.60;99.90;;;;;;10454814;28;20060;-78
2022/09/15 22:08:14;;;;;;;5.93;2.75;;;16.50;99.90;;;;;;10452450;28;20483;-77
2022/09/15 22:13:18;;;;;;;7.30;3.05;;;16.50;99.90;;;;;;10455359;28;20048;-77
2022/09/15 22:18:20;;;;;;;7.13;2.63;;;16.50;99.90;;;;;;10452409;28;20056;-77
2022/09/15 22:23:22;;;;;;;8.93;3.10;;;16.40;99.90;;;;;;10455115;28;20060;-77
2022/09/15 22:28:26;;;;;;;6.53;2.70;;;16.40;99.90;;;;;;10452611;28;20483;-77
2022/09/15 22:33:29;;;;;;;6.35;3.00;;;16.30;99.90;;;;;;10455094;28;20048;-78
2022/09/15 22:38:31;;;;;;;5.45;3.00;;;16.20;99.90;;;;;;10454399;28;20048;-76
2022/09/15 22:43:35;;;;;;;6.00;3.10;;;16.20;99.90;;;;;;10454719;28;20384;-77
2022/09/15 22:48:37;;;;;;;6.45;3.45;;;16.10;99.90;;;;;;10452947;28;20041;-78
2022/09/15 22:53:39;;;;;;;6.28;3.50;;;16.10;99.90;;;;;;10453401;28;20048;-77
2022/09/15 22:58:44;;;;;;;6.25;3.60;;;16.10;99.90;;;;;;10454125;28;20064;-78
2022/09/15 23:03:50;;;;;;;7.53;3.47;;;16.00;99.90;;;;;;10432356;28;20045;-77
2022/09/15 23:08:53;;;;;;;6.88;3.33;;;16.00;99.90;;;;;;10452117;28;20426;-79
2022/09/15 23:13:56;;;;;;;5.72;3.50;;;16.00;99.90;;;;;;10454285;28;20091;-78
2022/09/15 23:18:59;;;;;;;6.15;3.75;;;16.00;99.90;;;;;;10452337;28;20060;-77
2022/09/15 23:24:02;;;;;;;7.20;3.40;;;16.00;99.90;;;;;;10456629;28;20048;-78
2022/09/15 23:29:05;;;;;;;6.20;3.42;;;15.90;99.90;;;;;;10459898;28;20053;-77
2022/09/15 23:34:07;;;;;;;6.97;3.13;;;15.80;99.90;;;;;;10461005;28;20041;-77
2022/09/15 23:39:09;;;;;;;7.47;3.60;;;15.70;99.90;;;;;;10459714;28;20052;-77
2022/09/15 23:44:13;;;;;;;7.65;4.05;;;15.60;99.90;;;;;;10460156;28;20045;-77
2022/09/15 23:49:15;;;;;;;9.45;3.65;;;15.50;99.90;;;;;;10459116;28;20044;-77
2022/09/15 23:54:17;;;;;;;8.10;4.00;;;15.60;99.90;;;;;;10460168;28;20053;-77
2022/09/15 23:59:20;;;;;;;7.88;3.80;;;15.60;99.90;;;;;;10456588;28;20077;-77
